Rhine, North Carolina
Current Conditions -  °F | °C
As of 5:55 PM on Thursday 20 Nov 2014 (Local Time) from KGEV Reporting Station
Clear Clear  
Wind Chill: 31°   Ceiling: Unl
Heat Index: 38°   Visibility: 10mi
Dew Point: 18°   Wind: 9mph
Humidity: 46%   Direction: 250°WSW
Pressure: 30.02"   Gusts: NA
Location:  36.4009°N, 81.4072°W
Report Text: KGEV 202255Z AUTO 25008KT 190V260 10SM CLR 03/M08 A3002 RMK AO2 T00311076
Loading
Personal Weather Stations






























Interactive Weather Map New forecast layout! Learn more

10-Day Weather Forecast

Advertisements
Track Severe Weather on mobile